Time;durP1;ratioP1;P1;durP2;ratioP2;P2;SDS_P1;SDS_P2;PMS_P1;PMS_P2;Temp;Humidity;BMP_temperature;BMP_pressure;BME280_temperature;BME280_humidity;BME280_pressure;Samples;Min_cycle;Max_cycle;Signal;HPM_P1;HPM_P2
2023/09/08 00:01:01;;;;;;;7.73;4.10;;;;;;;;;;5045308;28;20507;-58
2023/09/08 00:03:27;;;;;;;8.03;4.27;;;;;;;;;;5043780;28;20397;-57
2023/09/08 00:05:52;;;;;;;7.37;4.40;;;;;;;;;;5043517;28;20488;-57
2023/09/08 00:08:17;;;;;;;7.73;4.60;;;;;;;;;;5045190;28;20931;-57
2023/09/08 00:10:42;;;;;;;9.03;4.30;;;;;;;;;;5046038;28;20412;-57
2023/09/08 00:13:08;;;;;;;8.53;4.63;;;;;;;;;;5040354;28;20502;-57
2023/09/08 00:15:33;;;;;;;7.30;4.13;;;;;;;;;;5045897;28;20891;-57
2023/09/08 00:17:59;;;;;;;8.70;4.80;;;;;;;;;;5046143;28;20413;-57
2023/09/08 00:20:24;;;;;;;7.83;4.53;;;;;;;;;;5040729;28;20888;-57
2023/09/08 00:22:49;;;;;;;8.00;4.40;;;;;;;;;;5044916;28;20433;-57
2023/09/08 00:25:15;;;;;;;8.40;4.67;;;;;;;;;;5045691;28;20523;-57
2023/09/08 00:27:40;;;;;;;8.63;4.37;;;;;;;;;;5043093;28;20888;-57
2023/09/08 00:30:06;;;;;;;8.20;4.47;;;;;;;;;;5042493;28;20422;-57
2023/09/08 00:32:31;;;;;;;11.18;4.45;;;;;;;;;;5037594;28;20405;-57
2023/09/08 00:34:56;;;;;;;7.57;4.67;;;;;;;;;;5036602;28;20424;-57
2023/09/08 00:37:21;;;;;;;9.30;4.63;;;;;;;;;;5033822;28;20403;-57
2023/09/08 00:39:47;;;;;;;10.97;5.10;;;;;;;;;;5041044;28;20490;-57
2023/09/08 00:42:12;;;;;;;9.15;4.80;;;;;;;;;;5030433;28;20504;-57
2023/09/08 00:44:37;;;;;;;8.43;4.20;;;;;;;;;;5028748;28;20447;-57
2023/09/08 00:47:03;;;;;;;7.63;5.00;;;;;;;;;;5035449;28;20402;-58
2023/09/08 00:49:28;;;;;;;7.95;4.85;;;;;;;;;;5029081;28;20398;-57
2023/09/08 00:51:53;;;;;;;8.10;4.53;;;;;;;;;;5033844;28;20421;-57
2023/09/08 00:54:19;;;;;;;8.27;4.73;;;;;;;;;;5029133;28;20397;-57
2023/09/08 00:56:44;;;;;;;8.00;4.40;;;;;;;;;;5019827;28;20981;-56
2023/09/08 00:59:10;;;;;;;8.40;4.50;;;;;;;;;;5024448;28;20399;-57
2023/09/08 01:01:35;;;;;;;8.30;4.83;;;;;;;;;;5036851;28;20939;-57
2023/09/08 01:04:01;;;;;;;7.10;4.70;;;;;;;;;;5023671;28;20534;-58
2023/09/08 01:06:26;;;;;;;8.52;4.70;;;;;;;;;;5022383;28;20410;-57
2023/09/08 01:08:51;;;;;;;8.00;4.60;;;;;;;;;;5023553;28;20403;-57
2023/09/08 01:11:17;;;;;;;7.53;4.60;;;;;;;;;;5022330;28;20411;-57
2023/09/08 01:13:43;;;;;;;8.60;4.90;;;;;;;;;;5020439;28;20490;-57
2023/09/08 01:16:08;;;;;;;8.35;5.20;;;;;;;;;;5023772;28;20901;-57
2023/09/08 01:18:33;;;;;;;7.63;4.83;;;;;;;;;;5024706;28;20398;-57
2023/09/08 01:21:06;;;;;;;7.43;4.90;;;;;;;;;;5020879;28;20910;-57
2023/09/08 01:23:41;;;;;;;8.35;4.90;;;;;;;;;;5026289;28;20429;-57
2023/09/08 01:26:08;;;;;;;8.40;5.07;;;;;;;;;;5034768;28;20919;-57
2023/09/08 01:28:33;;;;;;;7.80;5.05;;;;;;;;;;5030572;28;20781;-57
2023/09/08 01:30:59;;;;;;;6.57;4.82;;;;;;;;;;5018133;28;20415;-57
2023/09/08 01:33:24;;;;;;;8.77;5.00;;;;;;;;;;5036149;28;20845;-57
2023/09/08 01:35:49;;;;;;;8.05;5.22;;;;;;;;;;5036604;28;20867;-57
2023/09/08 01:38:14;;;;;;;7.13;5.15;;;;;;;;;;5021508;28;20407;-57
2023/09/08 01:40:40;;;;;;;7.68;4.80;;;;;;;;;;5034614;28;20466;-57
2023/09/08 01:43:05;;;;;;;7.55;4.55;;;;;;;;;;5034922;28;20946;-57
2023/09/08 01:45:30;;;;;;;7.13;5.03;;;;;;;;;;5022133;28;20457;-57
2023/09/08 01:47:56;;;;;;;9.35;5.00;;;;;;;;;;5021783;28;20434;-57
2023/09/08 01:50:22;;;;;;;8.57;5.00;;;;;;;;;;5023879;28;21068;-57
2023/09/08 01:52:47;;;;;;;8.10;5.15;;;;;;;;;;5023614;28;20473;-57
2023/09/08 01:55:13;;;;;;;7.40;5.30;;;;;;;;;;5018718;28;20591;-57
2023/09/08 01:57:38;;;;;;;8.43;5.33;;;;;;;;;;5024244;28;20492;-57
2023/09/08 02:00:03;;;;;;;7.33;5.30;;;;;;;;;;5023160;28;20407;-57
2023/09/08 02:02:29;;;;;;;7.77;5.43;;;;;;;;;;5022860;28;20487;-57
2023/09/08 02:04:54;;;;;;;7.17;5.37;;;;;;;;;;5031316;28;20407;-57
2023/09/08 02:07:19;;;;;;;10.50;5.50;;;;;;;;;;5020015;28;20386;-57
2023/09/08 02:09:45;;;;;;;7.70;5.37;;;;;;;;;;5001165;28;21038;-57
2023/09/08 02:12:10;;;;;;;8.33;5.50;;;;;;;;;;4987781;28;20421;-57
2023/09/08 02:14:35;;;;;;;7.87;5.20;;;;;;;;;;4990340;28;20400;-57
2023/09/08 02:17:00;;;;;;;8.90;5.60;;;;;;;;;;4989092;28;20454;-60
2023/09/08 02:19:26;;;;;;;8.83;5.50;;;;;;;;;;4989550;28;20470;-57
2023/09/08 02:21:51;;;;;;;7.97;5.10;;;;;;;;;;4992358;28;20520;-58
2023/09/08 02:24:16;;;;;;;8.80;5.50;;;;;;;;;;4981721;28;20414;-57
2023/09/08 02:26:42;;;;;;;9.20;5.43;;;;;;;;;;4986926;28;20408;-57
2023/09/08 02:29:07;;;;;;;8.63;5.47;;;;;;;;;;4984674;28;20437;-57
2023/09/08 02:31:32;;;;;;;9.50;5.47;;;;;;;;;;4987559;28;20409;-57
2023/09/08 02:33:58;;;;;;;8.67;5.47;;;;;;;;;;4987720;28;20455;-57
2023/09/08 02:36:29;;;;;;;8.23;5.27;;;;;;;;;;4991283;28;20874;-57
2023/09/08 02:38:54;;;;;;;8.57;5.55;;;;;;;;;;4992920;28;20445;-57
2023/09/08 02:41:20;;;;;;;7.50;5.75;;;;;;;;;;4986019;28;20410;-57
2023/09/08 02:43:45;;;;;;;9.00;5.13;;;;;;;;;;4988369;28;20774;-57
2023/09/08 02:46:10;;;;;;;8.30;5.50;;;;;;;;;;4988242;28;20766;-58
2023/09/08 02:48:36;;;;;;;9.43;5.90;;;;;;;;;;4981597;28;21368;-57
2023/09/08 02:51:01;;;;;;;10.67;5.87;;;;;;;;;;4980487;28;20439;-58
2023/09/08 02:53:28;;;;;;;8.70;5.73;;;;;;;;;;4988680;28;20751;-57
2023/09/08 02:55:54;;;;;;;7.40;5.57;;;;;;;;;;4999357;28;20833;-57
2023/09/08 02:58:19;;;;;;;9.63;6.10;;;;;;;;;;4999787;28;20437;-57
2023/09/08 03:00:45;;;;;;;8.60;5.80;;;;;;;;;;4994561;28;20777;-58
2023/09/08 03:03:10;;;;;;;8.50;6.10;;;;;;;;;;4991836;28;20450;-57
2023/09/08 03:05:36;;;;;;;9.03;5.93;;;;;;;;;;4989490;28;20433;-58
2023/09/08 03:08:02;;;;;;;8.47;5.97;;;;;;;;;;4987508;28;20659;-58
2023/09/08 03:10:28;;;;;;;9.73;6.28;;;;;;;;;;4977135;28;20410;-57
2023/09/08 03:12:53;;;;;;;8.35;5.93;;;;;;;;;;4990880;28;20405;-57
2023/09/08 03:15:19;;;;;;;9.30;6.00;;;;;;;;;;4984821;28;20411;-57
2023/09/08 03:17:44;;;;;;;9.33;6.57;;;;;;;;;;4986955;28;20795;-57
2023/09/08 03:20:10;;;;;;;9.70;6.07;;;;;;;;;;4987162;28;20925;-57
2023/09/08 03:22:35;;;;;;;8.23;6.15;;;;;;;;;;4992666;28;20451;-57
2023/09/08 03:25:01;;;;;;;9.90;6.33;;;;;;;;;;4988106;28;20493;-58
2023/09/08 03:27:26;;;;;;;8.70;6.10;;;;;;;;;;4988165;28;20409;-57
2023/09/08 03:29:51;;;;;;;8.00;5.90;;;;;;;;;;4989559;28;20413;-57
2023/09/08 03:32:18;;;;;;;8.93;6.50;;;;;;;;;;4989388;28;20424;-57
2023/09/08 03:34:43;;;;;;;8.80;6.40;;;;;;;;;;4983243;28;20789;-57
2023/09/08 03:37:08;;;;;;;9.23;6.27;;;;;;;;;;4984025;28;20437;-57
2023/09/08 03:39:33;;;;;;;9.10;6.40;;;;;;;;;;4995382;28;21779;-57
2023/09/08 03:41:59;;;;;;;9.00;6.20;;;;;;;;;;4992654;28;20434;-57
2023/09/08 03:44:24;;;;;;;8.57;6.50;;;;;;;;;;5007310;28;20405;-57
2023/09/08 03:46:49;;;;;;;9.90;6.13;;;;;;;;;;5009557;28;20408;-57
2023/09/08 03:49:15;;;;;;;9.10;5.93;;;;;;;;;;5014461;28;20767;-57
2023/09/08 03:51:40;;;;;;;10.83;6.47;;;;;;;;;;5005226;28;20449;-57
2023/09/08 03:54:05;;;;;;;8.63;6.10;;;;;;;;;;4998083;28;20408;-59
2023/09/08 03:56:31;;;;;;;10.13;6.60;;;;;;;;;;5005895;28;20416;-57
2023/09/08 03:58:56;;;;;;;9.53;6.80;;;;;;;;;;5002154;28;20424;-57
2023/09/08 04:01:21;;;;;;;9.50;6.63;;;;;;;;;;4997720;28;20405;-57
2023/09/08 04:03:46;;;;;;;8.90;6.50;;;;;;;;;;5010790;28;20417;-58
2023/09/08 04:06:14;;;;;;;9.05;6.10;;;;;;;;;;5011555;28;21235;-57
2023/09/08 04:08:39;;;;;;;8.50;6.13;;;;;;;;;;4992682;28;20410;-57
2023/09/08 04:11:04;;;;;;;8.97;6.73;;;;;;;;;;4992610;28;21006;-57
2023/09/08 04:13:29;;;;;;;10.40;6.57;;;;;;;;;;4994222;28;20465;-57
2023/09/08 04:15:55;;;;;;;8.50;6.10;;;;;;;;;;4990952;28;20525;-57
2023/09/08 04:18:20;;;;;;;8.67;5.80;;;;;;;;;;4984776;28;21015;-57
2023/09/08 04:20:45;;;;;;;9.83;6.67;;;;;;;;;;4985972;28;20513;-58
2023/09/08 04:23:10;;;;;;;8.70;6.33;;;;;;;;;;4983801;28;20410;-57
2023/09/08 04:25:36;;;;;;;10.87;6.30;;;;;;;;;;4991366;28;20413;-57
2023/09/08 04:28:02;;;;;;;16.45;6.72;;;;;;;;;;4993568;28;20409;-58
2023/09/08 04:30:27;;;;;;;10.55;6.53;;;;;;;;;;4991770;28;21085;-57
2023/09/08 04:32:52;;;;;;;8.43;5.93;;;;;;;;;;4991370;28;20409;-57
2023/09/08 04:35:18;;;;;;;8.83;5.97;;;;;;;;;;4992919;28;20726;-57
2023/09/08 04:37:43;;;;;;;9.07;6.40;;;;;;;;;;4995517;28;20446;-57
2023/09/08 04:40:09;;;;;;;10.63;6.70;;;;;;;;;;4985485;28;20431;-57
2023/09/08 04:42:35;;;;;;;8.77;5.97;;;;;;;;;;4982799;28;20919;-57
2023/09/08 04:45:00;;;;;;;9.60;6.30;;;;;;;;;;4989256;28;20431;-57
2023/09/08 04:47:25;;;;;;;11.73;6.67;;;;;;;;;;4987695;28;20411;-57
2023/09/08 04:49:50;;;;;;;9.77;6.50;;;;;;;;;;4989346;28;20832;-57
2023/09/08 04:52:16;;;;;;;9.70;6.77;;;;;;;;;;4993962;28;20414;-57
2023/09/08 04:54:41;;;;;;;12.30;6.50;;;;;;;;;;4990368;28;20434;-57
2023/09/08 04:57:06;;;;;;;9.57;6.67;;;;;;;;;;4989496;28;20414;-58
2023/09/08 04:59:32;;;;;;;12.93;6.80;;;;;;;;;;4991647;28;20436;-57
2023/09/08 05:01:57;;;;;;;9.70;6.70;;;;;;;;;;4988073;28;20419;-57
2023/09/08 05:04:23;;;;;;;9.60;7.03;;;;;;;;;;5001353;28;21066;-57
2023/09/08 05:06:48;;;;;;;11.03;7.20;;;;;;;;;;5025008;28;20518;-58
2023/09/08 05:09:14;;;;;;;9.50;7.20;;;;;;;;;;5019106;28;20416;-57
2023/09/08 05:11:39;;;;;;;10.57;7.20;;;;;;;;;;5024669;28;20411;-57
2023/09/08 05:14:05;;;;;;;10.33;7.23;;;;;;;;;;5032733;28;20446;-58
2023/09/08 05:16:39;;;;;;;11.33;7.50;;;;;;;;;;5033079;28;20401;-58
2023/09/08 05:19:04;;;;;;;11.52;7.50;;;;;;;;;;5027080;28;20414;-57
2023/09/08 05:21:30;;;;;;;11.93;7.40;;;;;;;;;;5036577;28;20403;-58
2023/09/08 05:23:56;;;;;;;10.70;6.82;;;;;;;;;;5027773;28;20791;-58
2023/09/08 05:26:21;;;;;;;10.73;7.37;;;;;;;;;;5019524;28;20405;-57
2023/09/08 05:28:46;;;;;;;9.77;7.27;;;;;;;;;;5024105;28;20414;-58
2023/09/08 05:31:11;;;;;;;9.83;7.80;;;;;;;;;;5033486;28;20913;-58
2023/09/08 05:33:37;;;;;;;9.10;7.20;;;;;;;;;;5032798;28;20420;-58
2023/09/08 05:36:02;;;;;;;10.43;7.80;;;;;;;;;;5034192;28;20435;-58
2023/09/08 05:38:28;;;;;;;11.07;6.90;;;;;;;;;;5031400;28;20699;-57
2023/09/08 05:40:54;;;;;;;9.77;6.88;;;;;;;;;;5026445;28;20437;-58
2023/09/08 05:43:19;;;;;;;11.50;7.30;;;;;;;;;;5024695;28;20441;-58
2023/09/08 05:45:44;;;;;;;11.60;6.93;;;;;;;;;;5025048;28;20415;-57
2023/09/08 05:48:09;;;;;;;9.90;7.20;;;;;;;;;;5022505;28;20489;-58
2023/09/08 05:50:35;;;;;;;10.20;6.90;;;;;;;;;;5023903;28;20686;-58
2023/09/08 05:53:00;;;;;;;12.53;6.90;;;;;;;;;;5011152;28;20533;-58
2023/09/08 05:55:25;;;;;;;9.53;6.77;;;;;;;;;;5010368;28;20510;-58
2023/09/08 05:57:51;;;;;;;9.60;6.27;;;;;;;;;;5016819;28;20810;-58
2023/09/08 06:00:16;;;;;;;8.67;6.20;;;;;;;;;;5011066;28;20409;-58
2023/09/08 06:02:42;;;;;;;9.52;6.00;;;;;;;;;;5031897;28;20450;-58
2023/09/08 06:05:07;;;;;;;9.00;5.93;;;;;;;;;;5025135;28;20888;-58
2023/09/08 06:07:32;;;;;;;8.80;5.97;;;;;;;;;;5024625;28;20459;-58
2023/09/08 06:09:58;;;;;;;9.10;6.30;;;;;;;;;;5031680;28;20403;-58
2023/09/08 06:12:23;;;;;;;9.77;6.00;;;;;;;;;;5021618;28;20398;-58
2023/09/08 06:14:48;;;;;;;8.20;6.20;;;;;;;;;;5018483;28;20438;-58
2023/09/08 06:17:13;;;;;;;9.23;6.40;;;;;;;;;;5017339;28;20415;-58
2023/09/08 06:19:39;;;;;;;8.47;6.10;;;;;;;;;;5023387;28;20410;-58
2023/09/08 06:22:04;;;;;;;8.50;6.57;;;;;;;;;;5028992;28;20405;-58
2023/09/08 06:24:29;;;;;;;8.47;6.13;;;;;;;;;;5029658;28;20460;-58
2023/09/08 06:26:54;;;;;;;7.90;5.50;;;;;;;;;;5031910;28;20416;-58
2023/09/08 06:29:20;;;;;;;9.40;5.57;;;;;;;;;;5034341;28;20401;-58
2023/09/08 06:31:45;;;;;;;9.40;6.17;;;;;;;;;;5023807;28;20847;-58
2023/09/08 06:34:10;;;;;;;9.07;6.18;;;;;;;;;;5033047;28;20526;-59
2023/09/08 06:36:36;;;;;;;9.13;6.00;;;;;;;;;;5026189;28;20399;-58
2023/09/08 06:39:01;;;;;;;9.02;6.47;;;;;;;;;;5026802;28;20423;-59
2023/09/08 06:41:27;;;;;;;9.55;6.65;;;;;;;;;;5033542;28;20407;-58
2023/09/08 06:43:52;;;;;;;10.00;7.10;;;;;;;;;;5022139;28;20486;-58
2023/09/08 06:46:17;;;;;;;7.83;5.83;;;;;;;;;;5030824;28;20407;-58
2023/09/08 06:48:43;;;;;;;7.80;5.30;;;;;;;;;;5031856;28;20402;-58
2023/09/08 06:51:08;;;;;;;8.33;5.53;;;;;;;;;;5033527;28;20415;-59
2023/09/08 06:53:33;;;;;;;9.23;6.10;;;;;;;;;;5022846;28;20758;-59
2023/09/08 06:55:59;;;;;;;11.43;6.47;;;;;;;;;;5018222;28;20431;-58
2023/09/08 06:58:24;;;;;;;8.50;6.67;;;;;;;;;;5041801;28;20841;-59
2023/09/08 07:00:49;;;;;;;11.80;7.17;;;;;;;;;;5042943;28;20453;-57
2023/09/08 07:03:15;;;;;;;9.13;6.90;;;;;;;;;;5038205;28;20892;-58
2023/09/08 07:05:40;;;;;;;9.83;7.10;;;;;;;;;;5041915;28;20428;-58
2023/09/08 07:08:06;;;;;;;8.97;7.13;;;;;;;;;;5040693;28;20780;-59
2023/09/08 07:10:31;;;;;;;9.75;7.30;;;;;;;;;;5040808;28;20385;-58
2023/09/08 07:12:56;;;;;;;39.50;14.70;;;;;;;;;;5039939;28;20407;-58
2023/09/08 07:15:22;;;;;;;11.93;9.70;;;;;;;;;;5040960;28;20805;-58
2023/09/08 07:17:47;;;;;;;12.00;9.13;;;;;;;;;;5042879;28;20437;-58
2023/09/08 07:20:12;;;;;;;10.97;8.83;;;;;;;;;;5037485;28;20898;-58
2023/09/08 07:22:38;;;;;;;10.87;8.33;;;;;;;;;;5033233;28;20404;-58
2023/09/08 07:25:03;;;;;;;10.83;8.60;;;;;;;;;;5042582;28;20429;-58
2023/09/08 07:27:28;;;;;;;9.17;8.13;;;;;;;;;;5039630;28;20409;-58
2023/09/08 07:29:54;;;;;;;12.20;8.37;;;;;;;;;;5039858;28;20729;-58
2023/09/08 07:32:19;;;;;;;9.73;8.50;;;;;;;;;;5042621;28;20405;-58
2023/09/08 07:34:44;;;;;;;11.23;8.10;;;;;;;;;;5041440;28;20406;-58
2023/09/08 07:37:09;;;;;;;10.83;8.57;;;;;;;;;;5037847;28;20409;-58
2023/09/08 07:39:35;;;;;;;11.45;8.20;;;;;;;;;;5042816;28;20410;-58
2023/09/08 07:42:00;;;;;;;11.20;8.48;;;;;;;;;;5042940;28;20817;-58
2023/09/08 07:44:26;;;;;;;10.68;8.13;;;;;;;;;;5036024;28;20894;-58
2023/09/08 07:46:51;;;;;;;10.07;8.17;;;;;;;;;;5042687;28;21719;-58
2023/09/08 07:49:19;;;;;;;11.45;8.57;;;;;;;;;;5042427;28;20474;-58
2023/09/08 07:51:44;;;;;;;11.73;7.90;;;;;;;;;;5038721;28;20415;-58
2023/09/08 07:54:09;;;;;;;11.33;8.33;;;;;;;;;;5040213;28;20409;-59
2023/09/08 07:56:35;;;;;;;11.87;8.30;;;;;;;;;;5042740;28;20412;-58
2023/09/08 07:59:00;;;;;;;10.32;8.40;;;;;;;;;;5031661;28;20477;-58
2023/09/08 08:01:25;;;;;;;13.40;8.60;;;;;;;;;;5026160;28;20410;-58
2023/09/08 08:03:50;;;;;;;11.77;8.50;;;;;;;;;;5030900;28;20408;-58
2023/09/08 08:06:16;;;;;;;11.27;8.30;;;;;;;;;;5021517;28;20403;-58
2023/09/08 08:08:41;;;;;;;11.63;8.48;;;;;;;;;;5017872;28;20418;-58
2023/09/08 08:11:10;;;;;;;11.30;8.73;;;;;;;;;;5021859;28;20894;-59
2023/09/08 08:13:35;;;;;;;11.48;8.15;;;;;;;;;;5021379;28;20395;-58
2023/09/08 08:16:01;;;;;;;10.27;8.30;;;;;;;;;;5019832;28;20456;-59
2023/09/08 08:18:26;;;;;;;11.60;8.27;;;;;;;;;;5021930;28;21000;-58
2023/09/08 08:20:51;;;;;;;13.23;8.20;;;;;;;;;;5026136;28;20407;-58
2023/09/08 08:23:16;;;;;;;11.07;8.70;;;;;;;;;;5024911;28;20527;-58
2023/09/08 08:25:42;;;;;;;11.00;8.00;;;;;;;;;;5020887;28;20805;-58
2023/09/08 08:28:07;;;;;;;13.10;8.40;;;;;;;;;;5026729;28;20435;-58
2023/09/08 08:30:32;;;;;;;10.23;7.40;;;;;;;;;;5037509;28;20404;-58
2023/09/08 08:32:58;;;;;;;9.60;7.60;;;;;;;;;;5032537;28;20413;-58
2023/09/08 08:35:23;;;;;;;9.33;7.40;;;;;;;;;;5033046;28;20470;-58
2023/09/08 08:37:49;;;;;;;10.48;7.43;;;;;;;;;;5025634;28;20415;-58
2023/09/08 08:40:14;;;;;;;9.23;6.73;;;;;;;;;;5022617;28;20414;-58
2023/09/08 08:42:39;;;;;;;10.47;7.30;;;;;;;;;;5023066;28;20420;-58
2023/09/08 08:45:05;;;;;;;8.43;6.95;;;;;;;;;;5025073;28;20438;-59
2023/09/08 08:47:30;;;;;;;9.27;6.90;;;;;;;;;;5024721;28;20406;-58
2023/09/08 08:49:58;;;;;;;9.00;6.95;;;;;;;;;;5020480;28;20462;-58
2023/09/08 08:52:24;;;;;;;10.10;7.10;;;;;;;;;;5024711;28;20383;-58
2023/09/08 08:54:49;;;;;;;10.02;7.05;;;;;;;;;;5023657;28;20420;-58
2023/09/08 08:57:15;;;;;;;9.93;7.20;;;;;;;;;;5021631;28;20407;-58
2023/09/08 08:59:41;;;;;;;10.73;7.20;;;;;;;;;;5032517;28;20507;-58
2023/09/08 09:02:08;;;;;;;9.93;6.95;;;;;;;;;;5023369;28;20968;-59
2023/09/08 09:04:33;;;;;;;9.93;6.85;;;;;;;;;;5026980;28;20901;-58
2023/09/08 09:06:59;;;;;;;11.90;7.60;;;;;;;;;;5020959;28;20414;-58
2023/09/08 09:09:24;;;;;;;10.60;7.57;;;;;;;;;;5021840;28;20498;-58
2023/09/08 09:11:49;;;;;;;10.95;7.32;;;;;;;;;;5025722;28;20419;-58
2023/09/08 09:14:17;;;;;;;9.90;7.78;;;;;;;;;;5022630;28;20403;-59
2023/09/08 09:16:43;;;;;;;10.10;7.85;;;;;;;;;;5019553;28;20486;-58
2023/09/08 09:19:08;;;;;;;9.60;7.38;;;;;;;;;;5024560;28;20403;-58
2023/09/08 09:21:42;;;;;;;9.37;7.30;;;;;;;;;;5025027;28;20440;-58
2023/09/08 09:24:08;;;;;;;9.98;7.45;;;;;;;;;;5020131;28;20469;-58
2023/09/08 09:26:33;;;;;;;11.32;7.70;;;;;;;;;;5022545;28;21000;-58
2023/09/08 09:28:59;;;;;;;8.97;7.17;;;;;;;;;;5024118;28;20480;-58
2023/09/08 09:31:25;;;;;;;9.48;7.80;;;;;;;;;;5022056;28;20399;-58
2023/09/08 09:34:01;;;;;;;9.40;7.70;;;;;;;;;;5021774;28;20740;-58
2023/09/08 09:36:26;;;;;;;10.50;7.18;;;;;;;;;;5023469;28;20435;-58
2023/09/08 09:38:51;;;;;;;10.20;7.30;;;;;;;;;;5024674;28;20940;-58
2023/09/08 09:41:17;;;;;;;11.32;7.72;;;;;;;;;;5019270;28;20469;-58
2023/09/08 09:43:44;;;;;;;10.32;7.15;;;;;;;;;;5023549;28;20764;-58
2023/09/08 09:46:09;;;;;;;12.13;7.63;;;;;;;;;;5025069;28;20399;-58
2023/09/08 09:48:34;;;;;;;11.07;7.33;;;;;;;;;;5033190;28;20888;-58
2023/09/08 09:51:00;;;;;;;9.70;6.97;;;;;;;;;;5032871;28;20492;-58
2023/09/08 09:53:25;;;;;;;8.77;6.77;;;;;;;;;;5022885;28;20430;-58
2023/09/08 09:55:50;;;;;;;9.23;7.43;;;;;;;;;;5031692;28;20407;-58
2023/09/08 09:58:16;;;;;;;9.60;6.60;;;;;;;;;;5017606;28;20817;-58
2023/09/08 10:00:41;;;;;;;10.87;7.57;;;;;;;;;;5024517;28;20438;-58
2023/09/08 10:03:06;;;;;;;9.90;6.53;;;;;;;;;;5023358;28;20407;-59
2023/09/08 10:05:32;;;;;;;10.27;6.97;;;;;;;;;;5017241;28;20457;-58
2023/09/08 10:07:57;;;;;;;8.57;6.33;;;;;;;;;;5023610;28;20419;-58
2023/09/08 10:10:22;;;;;;;8.53;6.50;;;;;;;;;;5022498;28;20403;-58
2023/09/08 10:12:51;;;;;;;9.77;6.67;;;;;;;;;;5029111;28;20391;-58
2023/09/08 10:15:17;;;;;;;8.95;6.00;;;;;;;;;;5022418;28;20652;-59
2023/09/08 10:17:42;;;;;;;11.90;6.75;;;;;;;;;;5035524;28;20415;-58
2023/09/08 10:20:11;;;;;;;8.97;6.60;;;;;;;;;;5030877;28;20928;-59
2023/09/08 10:22:36;;;;;;;9.63;7.05;;;;;;;;;;5024537;28;20466;-58
2023/09/08 10:25:03;;;;;;;10.93;6.97;;;;;;;;;;5018356;28;20489;-58
2023/09/08 10:27:28;;;;;;;9.30;7.18;;;;;;;;;;5022857;28;20401;-58
2023/09/08 10:29:53;;;;;;;10.90;6.97;;;;;;;;;;5023202;28;20916;-58
2023/09/08 10:32:19;;;;;;;9.43;7.00;;;;;;;;;;5020238;28;20403;-58
2023/09/08 10:34:44;;;;;;;8.43;7.10;;;;;;;;;;5019685;28;20827;-58
2023/09/08 10:37:29;;;;;;;10.63;7.10;;;;;;;;;;5022769;28;20419;-58
2023/09/08 10:39:54;;;;;;;9.43;7.47;;;;;;;;;;5030071;28;20493;-58
2023/09/08 10:42:21;;;;;;;10.80;6.60;;;;;;;;;;5038291;28;20479;-59
2023/09/08 10:44:47;;;;;;;9.65;6.50;;;;;;;;;;5030072;28;20877;-58
2023/09/08 10:47:12;;;;;;;10.25;6.45;;;;;;;;;;5032527;28;20523;-58
2023/09/08 10:49:38;;;;;;;8.93;6.50;;;;;;;;;;5029490;28;20585;-58
2023/09/08 10:52:08;;;;;;;9.45;7.10;;;;;;;;;;5028556;28;21228;-59
2023/09/08 10:54:41;;;;;;;9.45;7.45;;;;;;;;;;5033736;28;20405;-58
2023/09/08 10:57:08;;;;;;;10.45;6.43;;;;;;;;;;5033914;28;20479;-59
2023/09/08 10:59:35;;;;;;;9.13;7.20;;;;;;;;;;5017414;28;20421;-58
2023/09/08 11:02:03;;;;;;;10.02;6.63;;;;;;;;;;5029171;28;20780;-61
2023/09/08 11:04:28;;;;;;;11.50;6.38;;;;;;;;;;5034685;28;20987;-58
2023/09/08 11:06:55;;;;;;;9.40;7.10;;;;;;;;;;5031433;28;20488;-59
2023/09/08 11:09:21;;;;;;;9.30;6.97;;;;;;;;;;5027600;28;20455;-58
2023/09/08 11:11:46;;;;;;;9.80;6.43;;;;;;;;;;5031638;28;20403;-58
2023/09/08 11:14:11;;;;;;;10.90;6.83;;;;;;;;;;5030542;28;20438;-58
2023/09/08 11:16:37;;;;;;;8.10;6.50;;;;;;;;;;5026094;28;20460;-58
2023/09/08 11:19:04;;;;;;;10.13;6.27;;;;;;;;;;5031497;28;20399;-58
2023/09/08 11:21:34;;;;;;;9.35;6.20;;;;;;;;;;5033694;28;21024;-58
2023/09/08 11:24:00;;;;;;;8.13;5.28;;;;;;;;;;5031487;28;20776;-58
2023/09/08 11:26:26;;;;;;;8.30;6.00;;;;;;;;;;5028804;28;20398;-58
2023/09/08 11:28:53;;;;;;;9.75;5.65;;;;;;;;;;5030720;28;20477;-58
2023/09/08 11:31:18;;;;;;;9.53;6.07;;;;;;;;;;5020755;28;20407;-58
2023/09/08 11:33:43;;;;;;;8.73;6.40;;;;;;;;;;5018656;28;20447;-58
2023/09/08 11:36:11;;;;;;;9.03;5.30;;;;;;;;;;5021567;28;20411;-58
2023/09/08 11:38:36;;;;;;;7.07;5.40;;;;;;;;;;5023002;28;20435;-58
2023/09/08 11:41:03;;;;;;;8.10;5.10;;;;;;;;;;5018735;28;20473;-59
2023/09/08 11:43:29;;;;;;;9.13;6.28;;;;;;;;;;5020337;28;20451;-58
2023/09/08 11:45:54;;;;;;;9.07;5.70;;;;;;;;;;5015380;28;20411;-58
2023/09/08 11:48:20;;;;;;;8.52;5.55;;;;;;;;;;5021271;28;20559;-58
2023/09/08 11:50:45;;;;;;;7.87;5.80;;;;;;;;;;5030379;28;20429;-58
2023/09/08 11:53:10;;;;;;;9.17;5.60;;;;;;;;;;5036481;28;20393;-59
2023/09/08 11:55:36;;;;;;;6.97;5.53;;;;;;;;;;5035035;28;20403;-58
2023/09/08 11:58:02;;;;;;;11.75;5.38;;;;;;;;;;5022406;28;20762;-59
2023/09/08 12:00:27;;;;;;;7.40;4.43;;;;;;;;;;5032293;28;20402;-58
2023/09/08 12:02:52;;;;;;;8.83;5.10;;;;;;;;;;5024081;28;20441;-58
2023/09/08 12:05:23;;;;;;;7.60;4.33;;;;;;;;;;5026542;28;20486;-58
2023/09/08 12:07:49;;;;;;;6.85;4.63;;;;;;;;;;5024017;28;20529;-58
2023/09/08 12:10:15;;;;;;;7.35;4.85;;;;;;;;;;5022472;28;20959;-58
2023/09/08 12:12:42;;;;;;;9.00;4.50;;;;;;;;;;5025888;28;20392;-58
2023/09/08 12:15:07;;;;;;;7.93;4.13;;;;;;;;;;5025949;28;20413;-59
2023/09/08 12:17:32;;;;;;;9.27;4.00;;;;;;;;;;5018863;28;20766;-58
2023/09/08 12:19:58;;;;;;;8.60;4.40;;;;;;;;;;5034564;28;20417;-58
2023/09/08 12:22:23;;;;;;;8.17;4.00;;;;;;;;;;5036792;28;20517;-58
2023/09/08 12:24:49;;;;;;;7.70;3.70;;;;;;;;;;5027002;28;20427;-58
2023/09/08 12:27:20;;;;;;;6.75;3.35;;;;;;;;;;5023632;28;20406;-58
2023/09/08 12:29:54;;;;;;;5.85;3.50;;;;;;;;;;5025717;28;20994;-58
2023/09/08 12:32:20;;;;;;;7.05;3.63;;;;;;;;;;5024065;28;20415;-59
2023/09/08 12:34:45;;;;;;;5.72;3.13;;;;;;;;;;5019534;28;20417;-58
2023/09/08 12:37:12;;;;;;;8.00;3.73;;;;;;;;;;5025268;28;20423;-58
2023/09/08 12:39:38;;;;;;;7.10;3.30;;;;;;;;;;5033204;28;20442;-58
2023/09/08 12:42:03;;;;;;;5.93;3.20;;;;;;;;;;5030920;28;20407;-59
2023/09/08 12:44:29;;;;;;;5.40;3.60;;;;;;;;;;5031415;28;20484;-58
2023/09/08 12:46:54;;;;;;;7.40;3.20;;;;;;;;;;5024957;28;20407;-58
2023/09/08 12:49:19;;;;;;;4.93;3.23;;;;;;;;;;5024010;28;20473;-58
2023/09/08 12:51:44;;;;;;;6.50;3.10;;;;;;;;;;5021640;28;20414;-58
2023/09/08 12:54:10;;;;;;;4.93;3.10;;;;;;;;;;5024383;28;20501;-58
2023/09/08 12:56:35;;;;;;;5.43;2.90;;;;;;;;;;5025565;28;20902;-58
2023/09/08 12:59:01;;;;;;;6.00;3.30;;;;;;;;;;5020549;28;20410;-61
2023/09/08 13:01:26;;;;;;;5.00;3.27;;;;;;;;;;5031917;28;20884;-58
2023/09/08 13:03:51;;;;;;;5.50;3.30;;;;;;;;;;5033375;28;20413;-58
2023/09/08 13:06:16;;;;;;;5.97;3.20;;;;;;;;;;5032733;28;20888;-58
2023/09/08 13:08:42;;;;;;;6.37;3.20;;;;;;;;;;5033987;28;21307;-58
2023/09/08 13:11:07;;;;;;;6.67;3.40;;;;;;;;;;5027310;28;20419;-59
2023/09/08 13:13:32;;;;;;;6.70;3.50;;;;;;;;;;5024318;28;20395;-58
2023/09/08 13:15:58;;;;;;;6.43;3.77;;;;;;;;;;5020272;28;20492;-58
2023/09/08 13:18:23;;;;;;;6.43;3.73;;;;;;;;;;5024570;28;20413;-58
2023/09/08 13:20:48;;;;;;;7.63;3.80;;;;;;;;;;5031988;28;20430;-58
2023/09/08 13:23:14;;;;;;;9.23;3.50;;;;;;;;;;5030144;28;20770;-58
2023/09/08 13:25:41;;;;;;;7.83;3.90;;;;;;;;;;5035780;28;20393;-58
2023/09/08 13:28:06;;;;;;;6.40;3.70;;;;;;;;;;5034561;28;20409;-59
2023/09/08 13:30:32;;;;;;;6.77;3.60;;;;;;;;;;5030807;28;20394;-58
2023/09/08 13:32:57;;;;;;;5.45;3.67;;;;;;;;;;5010654;28;20738;-58
2023/09/08 13:35:22;;;;;;;8.37;4.00;;;;;;;;;;5003273;28;20406;-58
2023/09/08 13:37:47;;;;;;;6.73;3.93;;;;;;;;;;4998717;28;20417;-58
2023/09/08 13:40:13;;;;;;;6.83;4.00;;;;;;;;;;5004041;28;20393;-58
2023/09/08 13:42:38;;;;;;;7.70;3.90;;;;;;;;;;5018305;28;20762;-58
2023/09/08 13:45:04;;;;;;;9.33;4.13;;;;;;;;;;5006023;28;20444;-59
2023/09/08 13:47:29;;;;;;;8.05;4.35;;;;;;;;;;5009476;28;20425;-58
2023/09/08 13:49:54;;;;;;;7.40;4.10;;;;;;;;;;5008459;28;20940;-58
2023/09/08 13:52:20;;;;;;;8.00;4.00;;;;;;;;;;5004326;28;20388;-58
2023/09/08 13:54:45;;;;;;;8.20;4.30;;;;;;;;;;5002962;28;20423;-58
2023/09/08 13:57:10;;;;;;;7.80;4.30;;;;;;;;;;5001867;28;20427;-58
2023/09/08 13:59:35;;;;;;;7.53;4.30;;;;;;;;;;5004877;28;20424;-58
2023/09/08 14:02:03;;;;;;;6.43;3.80;;;;;;;;;;4993231;28;20633;-59
2023/09/08 14:04:28;;;;;;;6.60;4.30;;;;;;;;;;5007336;28;20803;-58
2023/09/08 14:06:54;;;;;;;6.70;4.60;;;;;;;;;;5011117;28;20407;-58
2023/09/08 14:09:19;;;;;;;8.70;4.10;;;;;;;;;;4998693;28;20506;-58
2023/09/08 14:11:44;;;;;;;8.17;4.20;;;;;;;;;;4992502;28;20434;-58
2023/09/08 14:14:09;;;;;;;8.90;4.05;;;;;;;;;;4993765;28;20529;-58
2023/09/08 14:16:35;;;;;;;7.00;3.80;;;;;;;;;;4994152;28;20427;-58
2023/09/08 14:19:00;;;;;;;6.47;3.63;;;;;;;;;;4990896;28;20837;-58
2023/09/08 14:21:25;;;;;;;6.63;3.70;;;;;;;;;;4984010;28;20398;-58
2023/09/08 14:23:51;;;;;;;8.07;4.00;;;;;;;;;;4987598;28;20923;-58
2023/09/08 14:26:16;;;;;;;7.37;3.97;;;;;;;;;;4994605;28;20457;-58
2023/09/08 14:28:42;;;;;;;7.63;3.90;;;;;;;;;;4991411;28;20882;-58
2023/09/08 14:31:07;;;;;;;6.60;3.70;;;;;;;;;;4993987;28;20418;-58